Time;durP1;ratioP1;P1;durP2;ratioP2;P2;SDS_P1;SDS_P2;PMS_P1;PMS_P2;Temp;Humidity;BMP_temperature;BMP_pressure;BME280_temperature;BME280_humidity;BME280_pressure;Samples;Min_cycle;Max_cycle;Signal;HPM_P1;HPM_P2
2022/07/17 00:00:31;;;;;;;;;;;;;;;32.16;25.17;101697.41;4420965;32;20608;-69
2022/07/17 00:02:56;;;;;;;;;;;;;;;32.04;25.39;101693.19;4419150;32;20445;-69
2022/07/17 00:05:22;;;;;;;;;;;;;;;32.07;25.24;101692.06;4418029;32;21078;-69
2022/07/17 00:07:49;;;;;;;;;;;;;;;31.97;25.38;101700.50;4417163;32;19987;-69
2022/07/17 00:10:16;;;;;;;;;;;;;;;32.04;25.32;101699.81;4421569;32;19957;-68
2022/07/17 00:12:41;;;;;;;;;;;;;;;31.92;25.38;101709.38;4415388;32;19994;-68
2022/07/17 00:15:07;;;;;;;;;;;;;;;31.91;25.43;101707.81;4418604;32;20320;-68
2022/07/17 00:17:33;;;;;;;;;;;;;;;31.92;25.45;101715.97;4417830;32;20257;-68
2022/07/17 00:20:00;;;;;;;;;;;;;;;32.05;25.29;101718.84;4419354;32;19961;-68
2022/07/17 00:22:25;;;;;;;;;;;;;;;32.08;25.11;101729.34;4417006;32;19997;-68
2022/07/17 00:24:50;;;;;;;;;;;;;;;31.93;25.34;101717.53;4421567;32;19986;-68
2022/07/17 00:27:16;;;;;;;;;;;;;;;31.60;25.72;101729.16;4417789;32;19999;-68
2022/07/17 00:29:41;;;;;;;;;;;;;;;31.57;25.67;101721.53;4420924;32;20551;-68
2022/07/17 00:32:08;;;;;;;;;;;;;;;31.82;25.53;101722.84;4417200;32;20447;-68
2022/07/17 00:34:34;;;;;;;;;;;;;;;31.90;25.55;101715.75;4417670;32;20006;-68
2022/07/17 00:36:59;;;;;;;;;;;;;;;31.96;25.52;101721.44;4419147;32;20009;-68
2022/07/17 00:39:25;;;;;;;;;;;;;;;31.66;25.91;101732.72;4421869;32;19972;-68
2022/07/17 00:41:51;;;;;;;;;;;;;;;31.47;26.10;101726.28;4402634;32;20005;-68
2022/07/17 00:44:16;;;;;;;;;;;;;;;31.66;25.74;101726.91;4417756;32;19977;-68
2022/07/17 00:46:42;;;;;;;;;;;;;;;31.56;25.69;101731.59;4416772;32;20310;-68
2022/07/17 00:49:08;;;;;;;;;;;;;;;31.38;25.89;101723.81;4418917;32;19954;-68
2022/07/17 00:51:34;;;;;;;;;;;;;;;31.29;25.97;101718.47;4421805;32;20061;-68
2022/07/17 00:53:59;;;;;;;;;;;;;;;31.33;25.90;101713.06;4420940;32;20027;-68
2022/07/17 00:56:26;;;;;;;;;;;;;;;31.24;26.08;101710.59;4416829;32;20644;-69
2022/07/17 00:58:52;;;;;;;;;;;;;;;31.22;26.06;101704.53;4417176;32;19977;-69
2022/07/17 01:01:18;;;;;;;;;;;;;;;31.25;25.97;101710.03;4414697;32;20109;-69
2022/07/17 01:03:43;;;;;;;;;;;;;;;31.08;25.96;101708.81;4417772;32;20015;-69
2022/07/17 01:06:09;;;;;;;;;;;;;;;30.99;26.04;101706.34;4417349;32;20001;-69
2022/07/17 01:08:35;;;;;;;;;;;;;;;30.78;26.07;101698.31;4419682;32;20001;-68
2022/07/17 01:11:01;;;;;;;;;;;;;;;30.51;26.61;101704.59;4420309;32;19965;-68
2022/07/17 01:13:27;;;;;;;;;;;;;;;30.51;26.59;101698.78;4421998;32;20003;-68
2022/07/17 01:15:54;;;;;;;;;;;;;;;30.53;26.37;101701.94;4417290;32;20115;-69
2022/07/17 01:18:19;;;;;;;;;;;;;;;30.77;26.14;101699.62;4416915;32;19967;-68
2022/07/17 01:20:46;;;;;;;;;;;;;;;30.67;26.03;101706.41;4419237;32;19958;-68
2022/07/17 01:23:13;;;;;;;;;;;;;;;30.55;26.33;101705.84;4417349;32;19965;-68
2022/07/17 01:25:38;;;;;;;;;;;;;;;30.68;26.00;101699.28;4417934;32;20333;-68
2022/07/17 01:28:04;;;;;;;;;;;;;;;30.57;26.28;101687.84;4418651;32;19961;-69
2022/07/17 01:30:30;;;;;;;;;;;;;;;30.85;26.07;101688.13;4419296;32;19999;-69
2022/07/17 01:32:56;;;;;;;;;;;;;;;30.74;26.19;101689.12;4417387;32;20303;-68
2022/07/17 01:35:21;;;;;;;;;;;;;;;30.99;25.92;101695.53;4419450;32;20099;-68
2022/07/17 01:37:47;;;;;;;;;;;;;;;30.66;26.08;101702.75;4418749;32;20289;-69
2022/07/17 01:40:13;;;;;;;;;;;;;;;30.68;26.01;101693.47;4415768;32;20359;-69
2022/07/17 01:42:41;;;;;;;;;;;;;;;30.70;25.88;101699.47;4418671;32;20404;-68
2022/07/17 01:45:07;;;;;;;;;;;;;;;30.83;25.81;101697.41;4418408;32;20023;-69
2022/07/17 01:47:34;;;;;;;;;;;;;;;31.02;25.60;101705.25;4422495;32;20469;-68
2022/07/17 01:50:01;;;;;;;;;;;;;;;30.84;25.89;101704.00;4421461;32;20020;-68
2022/07/17 01:52:26;;;;;;;;;;;;;;;31.01;25.72;101697.87;4420399;32;20012;-68
2022/07/17 01:54:52;;;;;;;;;;;;;;;30.99;25.83;101698.44;4420576;32;20005;-69
2022/07/17 01:57:18;;;;;;;;;;;;;;;30.84;25.88;101695.28;4419213;32;19993;-68
2022/07/17 01:59:44;;;;;;;;;;;;;;;30.78;26.01;101686.69;4419381;32;19961;-68
2022/07/17 02:02:10;;;;;;;;;;;;;;;30.66;26.14;101682.41;4422056;32;20003;-68
2022/07/17 02:04:36;;;;;;;;;;;;;;;30.86;26.00;101686.00;4420204;32;19949;-68
2022/07/17 02:07:02;;;;;;;;;;;;;;;30.90;25.80;101681.44;4418834;32;20425;-68
2022/07/17 02:09:28;;;;;;;;;;;;;;;30.85;25.64;101679.41;4423529;32;19996;-69
2022/07/17 02:11:53;;;;;;;;;;;;;;;30.76;26.03;101680.63;4419407;32;20004;-68
2022/07/17 02:14:19;;;;;;;;;;;;;;;30.61;26.12;101685.38;4419329;32;20009;-68
2022/07/17 02:16:45;;;;;;;;;;;;;;;30.52;26.10;101674.19;4419173;32;19991;-68
2022/07/17 02:19:10;;;;;;;;;;;;;;;30.59;26.02;101677.22;4418825;32;19971;-68
2022/07/17 02:21:36;;;;;;;;;;;;;;;30.76;25.87;101680.63;4420994;32;19946;-68
2022/07/17 02:24:01;;;;;;;;;;;;;;;30.34;26.32;101683.78;4421901;32;19946;-68
2022/07/17 02:26:27;;;;;;;;;;;;;;;30.53;26.29;101678.69;4421252;32;20403;-68
2022/07/17 02:28:52;;;;;;;;;;;;;;;30.84;25.84;101672.03;4420629;32;20388;-68
2022/07/17 02:31:18;;;;;;;;;;;;;;;30.70;26.08;101671.22;4418656;32;19993;-68
2022/07/17 02:33:43;;;;;;;;;;;;;;;30.83;25.98;101655.16;4419261;32;20031;-68
2022/07/17 02:36:09;;;;;;;;;;;;;;;30.54;26.25;101657.00;4419382;32;19968;-68
2022/07/17 02:38:34;;;;;;;;;;;;;;;30.79;26.16;101646.75;4422994;32;19969;-68
2022/07/17 02:41:00;;;;;;;;;;;;;;;31.03;25.77;101649.44;4426010;32;19971;-68
2022/07/17 02:43:26;;;;;;;;;;;;;;;30.83;25.87;101653.00;4420870;32;20029;-68
2022/07/17 02:45:51;;;;;;;;;;;;;;;30.96;25.76;101643.50;4422560;32;19950;-68
2022/07/17 02:48:17;;;;;;;;;;;;;;;31.06;25.78;101653.34;4418069;32;20116;-68
2022/07/17 02:50:42;;;;;;;;;;;;;;;31.14;25.59;101652.12;4419813;32;19982;-68
2022/07/17 02:53:10;;;;;;;;;;;;;;;31.18;25.48;101654.66;4418869;32;19968;-68
2022/07/17 02:55:35;;;;;;;;;;;;;;;31.09;25.63;101652.22;4420095;32;19950;-69
2022/07/17 02:58:01;;;;;;;;;;;;;;;31.48;25.31;101655.09;4419645;32;20354;-68
2022/07/17 03:00:28;;;;;;;;;;;;;;;31.52;24.87;101655.50;4420791;32;19992;-69
2022/07/17 03:02:55;;;;;;;;;;;;;;;31.30;25.17;101665.53;4420720;32;20000;-68
2022/07/17 03:05:20;;;;;;;;;;;;;;;31.50;25.00;101664.03;4419815;32;20555;-68
2022/07/17 03:07:46;;;;;;;;;;;;;;;31.22;25.38;101669.66;4424235;32;19958;-68
2022/07/17 03:10:12;;;;;;;;;;;;;;;31.18;25.30;101670.00;4419972;32;20012;-68
2022/07/17 03:12:37;;;;;;;;;;;;;;;31.36;25.14;101663.28;4421567;32;19989;-68
2022/07/17 03:15:03;;;;;;;;;;;;;;;31.46;24.99;101640.31;4417556;32;20365;-68
2022/07/17 03:17:28;;;;;;;;;;;;;;;31.54;24.94;101612.09;4419127;32;20007;-68
2022/07/17 03:19:54;;;;;;;;;;;;;;;31.72;24.85;101603.16;4418534;32;20025;-68
2022/07/17 03:22:19;;;;;;;;;;;;;;;31.80;24.82;101611.97;4418514;32;19958;-69
2022/07/17 03:24:45;;;;;;;;;;;;;;;31.92;24.64;101619.09;4417555;32;20005;-69
2022/07/17 03:27:11;;;;;;;;;;;;;;;31.66;24.81;101627.94;4417682;32;20029;-69
2022/07/17 03:29:36;;;;;;;;;;;;;;;31.98;24.53;101634.31;4419662;32;20334;-69
2022/07/17 03:32:02;;;;;;;;;;;;;;;32.14;24.41;101627.25;4418757;32;19993;-69
2022/07/17 03:34:27;;;;;;;;;;;;;;;31.68;25.03;101620.19;4419823;32;19953;-69
2022/07/17 03:36:53;;;;;;;;;;;;;;;31.83;25.03;101605.84;4417560;32;19993;-69
2022/07/17 03:39:18;;;;;;;;;;;;;;;32.27;24.63;101607.56;4416957;32;19994;-68
2022/07/17 03:41:44;;;;;;;;;;;;;;;31.61;25.06;101617.22;4418918;32;20123;-68
2022/07/17 03:44:09;;;;;;;;;;;;;;;31.61;24.87;101632.56;4418707;32;19991;-68
2022/07/17 03:46:35;;;;;;;;;;;;;;;31.60;24.96;101628.06;4419405;32;20024;-68
2022/07/17 03:49:00;;;;;;;;;;;;;;;31.80;24.79;101600.31;4418844;32;20372;-68
2022/07/17 03:51:28;;;;;;;;;;;;;;;32.09;24.40;101608.59;4420288;32;20353;-68
2022/07/17 03:53:54;;;;;;;;;;;;;;;32.39;24.12;101605.94;4419155;32;19993;-68
2022/07/17 03:56:20;;;;;;;;;;;;;;;32.29;24.23;101601.97;4418792;32;19997;-69
2022/07/17 03:58:45;;;;;;;;;;;;;;;32.35;24.13;101614.28;4418062;32;19957;-69
2022/07/17 04:01:10;;;;;;;;;;;;;;;32.65;23.81;101611.56;4420701;32;19996;-69
2022/07/17 04:03:36;;;;;;;;;;;;;;;32.61;23.73;101613.31;4415190;32;20013;-69
2022/07/17 04:06:02;;;;;;;;;;;;;;;32.57;23.94;101615.78;4418548;32;20391;-69
2022/07/17 04:08:31;;;;;;;;;;;;;;;32.60;23.91;101624.16;4417249;32;20350;-69
2022/07/17 04:10:59;;;;;;;;;;;;;;;32.91;23.53;101625.16;4418915;32;20015;-69
2022/07/17 04:13:24;;;;;;;;;;;;;;;33.08;23.41;101615.91;4419984;32;20362;-69
2022/07/17 04:15:52;;;;;;;;;;;;;;;33.10;23.33;101611.06;4418585;32;19962;-69
2022/07/17 04:18:19;;;;;;;;;;;;;;;33.23;23.26;101621.81;4418859;32;20001;-69
2022/07/17 04:20:44;;;;;;;;;;;;;;;33.13;23.38;101618.66;4420518;32;19961;-69
2022/07/17 04:23:11;;;;;;;;;;;;;;;33.42;23.04;101619.38;4418828;32;19945;-69
2022/07/17 04:25:36;;;;;;;;;;;;;;;33.29;23.23;101619.50;4416290;32;19961;-69
2022/07/17 04:28:02;;;;;;;;;;;;;;;33.29;23.23;101625.34;4417198;32;19993;-69
2022/07/17 04:30:27;;;;;;;;;;;;;;;33.27;23.25;101628.03;4405341;32;19985;-69
2022/07/17 04:32:52;;;;;;;;;;;;;;;33.37;23.16;101632.03;4417759;32;19953;-69
2022/07/17 04:35:18;;;;;;;;;;;;;;;33.43;23.12;101645.06;4420324;32;20381;-69
2022/07/17 04:37:43;;;;;;;;;;;;;;;33.32;23.24;101633.72;4417936;32;19991;-69
2022/07/17 04:40:10;;;;;;;;;;;;;;;33.20;23.63;101628.81;4417023;32;20391;-69
2022/07/17 04:42:35;;;;;;;;;;;;;;;33.44;23.82;101622.50;4424053;32;20476;-69
2022/07/17 04:45:00;;;;;;;;;;;;;;;33.40;23.91;101613.34;4418270;32;19994;-69
2022/07/17 04:47:26;;;;;;;;;;;;;;;33.62;23.65;101595.13;4419607;32;19954;-69
2022/07/17 04:49:51;;;;;;;;;;;;;;;33.41;23.40;101577.72;4418500;32;19957;-69
2022/07/17 04:52:17;;;;;;;;;;;;;;;33.49;23.87;101569.00;4417850;32;20008;-69
2022/07/17 04:54:42;;;;;;;;;;;;;;;33.55;23.66;101590.81;4417539;32;19989;-69
2022/07/17 04:57:07;;;;;;;;;;;;;;;33.36;23.79;101596.19;4418623;32;20414;-69
2022/07/17 04:59:33;;;;;;;;;;;;;;;33.63;23.40;101609.13;4417681;32;20008;-69
2022/07/17 05:01:59;;;;;;;;;;;;;;;33.68;23.43;101604.47;4419537;32;20061;-69
2022/07/17 05:04:24;;;;;;;;;;;;;;;33.57;23.30;101599.78;4418457;32;20025;-69
2022/07/17 05:06:50;;;;;;;;;;;;;;;33.60;23.42;101607.38;4416977;32;20021;-69
2022/07/17 05:09:15;;;;;;;;;;;;;;;33.80;23.16;101602.72;4420347;32;19949;-69
2022/07/17 05:11:41;;;;;;;;;;;;;;;33.88;23.00;101588.94;4417820;32;19992;-69
2022/07/17 05:14:06;;;;;;;;;;;;;;;33.98;23.09;101584.88;4416981;32;19957;-69
2022/07/17 05:16:31;;;;;;;;;;;;;;;33.98;24.15;101575.31;4420989;32;20386;-68
2022/07/17 05:18:57;;;;;;;;;;;;;;;33.92;24.57;101587.19;4421377;32;19999;-68
2022/07/17 05:21:22;;;;;;;;;;;;;;;33.60;25.60;101606.59;4422120;32;20001;-68
2022/07/17 05:23:48;;;;;;;;;;;;;;;33.08;26.04;101621.75;4423904;32;20366;-68
2022/07/17 05:26:13;;;;;;;;;;;;;;;33.15;26.04;101624.69;4422883;32;19965;-68
2022/07/17 05:28:39;;;;;;;;;;;;;;;32.99;25.84;101631.81;4421761;32;19957;-68
2022/07/17 05:31:05;;;;;;;;;;;;;;;33.09;26.97;101620.37;4421260;32;20024;-68
2022/07/17 05:33:30;;;;;;;;;;;;;;;33.04;27.61;101619.19;4420561;32;20209;-68
2022/07/17 05:35:55;;;;;;;;;;;;;;;33.19;27.67;101633.09;4421507;32;19953;-68
2022/07/17 05:38:21;;;;;;;;;;;;;;;33.31;27.00;101632.16;4421365;32;20023;-68
2022/07/17 05:40:46;;;;;;;;;;;;;;;33.22;27.62;101626.09;4423010;32;20090;-69
2022/07/17 05:43:12;;;;;;;;;;;;;;;33.44;27.91;101613.75;4426590;32;20005;-68
2022/07/17 05:45:38;;;;;;;;;;;;;;;33.73;27.74;101607.22;4422597;32;20485;-68
2022/07/17 05:48:04;;;;;;;;;;;;;;;33.68;27.68;101624.91;4420322;32;20041;-69
2022/07/17 05:50:30;;;;;;;;;;;;;;;33.77;26.23;101636.78;4421297;32;20335;-69
2022/07/17 05:52:55;;;;;;;;;;;;;;;33.86;26.20;101638.34;4422987;32;19959;-69
2022/07/17 05:55:21;;;;;;;;;;;;;;;33.88;26.38;101641.53;4419601;32;20012;-69
2022/07/17 05:57:46;;;;;;;;;;;;;;;34.02;25.68;101642.91;4417813;32;20376;-68
2022/07/17 06:00:12;;;;;;;;;;;;;;;34.15;25.70;101640.56;4421364;32;19961;-69
2022/07/17 06:02:37;;;;;;;;;;;;;;;34.36;26.34;101652.88;4422071;32;20446;-68
2022/07/17 06:05:02;;;;;;;;;;;;;;;34.55;25.87;101651.69;4416920;32;19986;-68
2022/07/17 06:07:28;;;;;;;;;;;;;;;34.67;25.34;101658.72;4421367;32;20417;-69
2022/07/17 06:09:53;;;;;;;;;;;;;;;35.00;25.31;101655.34;4425811;32;19985;-69
2022/07/17 06:12:19;;;;;;;;;;;;;;;35.14;24.92;101652.94;4420790;32;19987;-69
2022/07/17 06:14:44;;;;;;;;;;;;;;;35.01;25.19;101656.13;4418226;32;20012;-69
2022/07/17 06:17:09;;;;;;;;;;;;;;;35.25;24.67;101650.37;4418553;32;20026;-69
2022/07/17 06:19:35;;;;;;;;;;;;;;;35.40;24.19;101649.56;4421503;32;19957;-69
2022/07/17 06:22:00;;;;;;;;;;;;;;;35.64;24.28;101645.91;4422388;32;20003;-69
2022/07/17 06:24:25;;;;;;;;;;;;;;;35.74;24.33;101656.41;4420350;32;20016;-69
2022/07/17 06:26:51;;;;;;;;;;;;;;;35.68;23.71;101658.00;4417557;32;20009;-69
2022/07/17 06:29:16;;;;;;;;;;;;;;;35.80;23.55;101659.91;4420120;32;20383;-69
2022/07/17 06:31:42;;;;;;;;;;;;;;;36.01;23.26;101668.34;4421019;32;20030;-69
2022/07/17 06:34:07;;;;;;;;;;;;;;;35.96;23.24;101658.44;4421316;32;20026;-69
2022/07/17 06:36:33;;;;;;;;;;;;;;;36.02;23.66;101658.97;4419695;32;19979;-69
2022/07/17 06:38:58;;;;;;;;;;;;;;;36.42;23.21;101647.16;4419840;32;20077;-69
2022/07/17 06:41:23;;;;;;;;;;;;;;;36.45;23.24;101657.69;4424123;32;19988;-69
2022/07/17 06:43:49;;;;;;;;;;;;;;;36.58;23.00;101663.25;4421352;32;20361;-69
2022/07/17 06:46:14;;;;;;;;;;;;;;;36.77;22.50;101656.81;4421669;32;20115;-69
2022/07/17 06:48:39;;;;;;;;;;;;;;;37.03;22.14;101662.81;4420289;32;20419;-69
2022/07/17 06:51:05;;;;;;;;;;;;;;;36.98;22.01;101655.03;4419782;32;20346;-69
2022/07/17 06:53:30;;;;;;;;;;;;;;;37.15;21.47;101651.31;4419094;32;19992;-69
2022/07/17 06:55:56;;;;;;;;;;;;;;;37.36;21.16;101654.59;4402700;32;20506;-69
2022/07/17 06:58:21;;;;;;;;;;;;;;;37.47;20.64;101657.78;4419027;32;19996;-69
2022/07/17 07:00:46;;;;;;;;;;;;;;;37.91;20.38;101661.47;4416927;32;20049;-69
2022/07/17 07:03:12;;;;;;;;;;;;;;;37.77;20.70;101651.47;4418671;32;20217;-69
2022/07/17 07:05:37;;;;;;;;;;;;;;;37.79;20.62;101663.41;4420436;32;20040;-69
2022/07/17 07:08:03;;;;;;;;;;;;;;;38.10;20.33;101657.88;4421519;32;20447;-67
2022/07/17 07:10:28;;;;;;;;;;;;;;;38.13;20.12;101647.84;4422243;32;19996;-69
2022/07/17 07:12:53;;;;;;;;;;;;;;;38.41;19.97;101647.16;4420316;32;20000;-67
2022/07/17 07:15:19;;;;;;;;;;;;;;;38.35;20.25;101643.75;4417786;32;20327;-67
2022/07/17 07:17:44;;;;;;;;;;;;;;;38.72;19.67;101633.47;4415767;32;20040;-68
2022/07/17 07:20:10;;;;;;;;;;;;;;;39.04;19.40;101636.00;4418850;32;20012;-68
2022/07/17 07:22:36;;;;;;;;;;;;;;;39.22;19.15;101628.56;4418324;32;20005;-68
2022/07/17 07:25:02;;;;;;;;;;;;;;;39.29;19.20;101630.56;4417105;32;19997;-68
2022/07/17 07:27:27;;;;;;;;;;;;;;;39.33;19.16;101633.81;4423865;32;19985;-68
2022/07/17 07:29:53;;;;;;;;;;;;;;;39.35;19.14;101621.41;4415788;32;19961;-68
2022/07/17 07:32:18;;;;;;;;;;;;;;;39.81;18.62;101627.06;4419984;32;20010;-68
2022/07/17 07:34:43;;;;;;;;;;;;;;;39.72;18.34;101632.34;4418992;32;20002;-68
2022/07/17 07:37:09;;;;;;;;;;;;;;;40.07;17.95;101638.62;4420804;32;19968;-68
2022/07/17 07:39:34;;;;;;;;;;;;;;;40.33;17.65;101639.78;4418964;32;20096;-68
2022/07/17 07:42:00;;;;;;;;;;;;;;;40.48;16.78;101642.31;4418033;32;19981;-68
2022/07/17 07:44:25;;;;;;;;;;;;;;;40.72;16.50;101647.78;4421760;32;20010;-68
2022/07/17 07:46:51;;;;;;;;;;;;;;;40.92;16.19;101645.47;4418503;32;19953;-68
2022/07/17 07:49:17;;;;;;;;;;;;;;;40.97;16.24;101639.22;4419397;32;20708;-68
2022/07/17 07:51:42;;;;;;;;;;;;;;;41.06;16.40;101640.53;4420927;32;20318;-68
2022/07/17 07:54:08;;;;;;;;;;;;;;;41.26;16.22;101633.84;4419563;32;19953;-68
2022/07/17 07:56:33;;;;;;;;;;;;;;;41.41;15.80;101632.63;4415288;32;19967;-68
2022/07/17 07:58:59;;;;;;;;;;;;;;;41.33;15.84;101626.16;4418862;32;20000;-68
2022/07/17 08:01:24;;;;;;;;;;;;;;;41.44;15.96;101629.16;4417137;32;19978;-68
2022/07/17 08:03:50;;;;;;;;;;;;;;;41.79;15.83;101632.22;4417241;32;19965;-68
2022/07/17 08:06:15;;;;;;;;;;;;;;;41.95;15.69;101620.69;4418365;32;21567;-68
2022/07/17 08:08:41;;;;;;;;;;;;;;;41.96;15.34;101623.00;4417236;32;20426;-68
2022/07/17 08:11:06;;;;;;;;;;;;;;;41.92;15.69;101628.66;4416130;32;20434;-68
2022/07/17 08:13:32;;;;;;;;;;;;;;;41.86;15.69;101618.59;4421086;32;19961;-68
2022/07/17 08:15:58;;;;;;;;;;;;;;;42.10;15.61;101611.31;4418450;32;20015;-68
2022/07/17 08:18:25;;;;;;;;;;;;;;;42.04;15.64;101614.66;4414656;32;20429;-68
2022/07/17 08:20:51;;;;;;;;;;;;;;;41.82;16.06;101616.16;4419353;32;20315;-68
2022/07/17 08:23:16;;;;;;;;;;;;;;;41.80;16.05;101621.19;4417545;32;20048;-68
2022/07/17 08:25:42;;;;;;;;;;;;;;;41.78;16.01;101618.09;4419864;32;20032;-68
2022/07/17 08:28:07;;;;;;;;;;;;;;;41.67;15.99;101609.94;4420193;32;20019;-68
2022/07/17 08:30:34;;;;;;;;;;;;;;;41.72;15.88;101624.38;4418424;32;20722;-68
2022/07/17 08:33:00;;;;;;;;;;;;;;;41.73;15.75;101628.88;4419258;32;20005;-68
2022/07/17 08:35:26;;;;;;;;;;;;;;;41.54;15.71;101632.03;4421312;32;20000;-69
2022/07/17 08:37:52;;;;;;;;;;;;;;;41.39;15.88;101618.50;4419840;32;20111;-69
2022/07/17 08:42:55;;;;;;;;;;;;;;;42.04;15.50;101613.88;3953316;32;15827449;-69
2022/07/17 08:45:21;;;;;;;;;;;;;;;42.04;15.50;101613.88;4439895;32;20456;-69
2022/07/17 08:47:47;;;;;;;;;;;;;;;42.43;14.70;101624.59;4439694;32;19963;-69
2022/07/17 08:50:13;;;;;;;;;;;;;;;43.12;14.37;101616.97;4442491;32;19949;-69
2022/07/17 08:52:39;;;;;;;;;;;;;;;43.54;14.08;101614.34;4440856;32;19961;-69
2022/07/17 08:55:04;;;;;;;;;;;;;;;43.85;13.78;101613.84;4439916;32;19996;-69
2022/07/17 08:57:30;;;;;;;;;;;;;;;43.55;13.20;101609.19;4443098;32;19979;-69
2022/07/17 08:59:55;;;;;;;;;;;;;;;44.33;12.76;101604.75;4441967;32;19975;-69
2022/07/17 09:02:21;;;;;;;;;;;;;;;44.17;12.75;101603.84;4444500;32;20011;-69
2022/07/17 09:04:54;;;;;;;;;;;;;;;44.28;12.89;101602.97;4442668;32;19980;-69
2022/07/17 09:07:19;;;;;;;;;;;;;;;44.34;12.83;101606.25;4441511;32;19988;-69
2022/07/17 09:09:52;;;;;;;;;;;;;;;44.14;13.11;101614.81;4441450;32;20007;-69
2022/07/17 09:12:22;;;;;;;;;;;;;;;44.26;13.05;101608.81;4442906;32;20363;-69
2022/07/17 09:14:48;;;;;;;;;;;;;;;44.65;12.75;101609.44;4439396;32;20333;-69
2022/07/17 09:17:13;;;;;;;;;;;;;;;44.94;12.49;101617.66;4444158;32;19975;-69
2022/07/17 09:19:40;;;;;;;;;;;;;;;45.25;12.36;101617.81;4439053;32;19996;-69
2022/07/17 09:22:15;;;;;;;;;;;;;;;44.26;12.33;101620.69;4439240;32;20036;-68
2022/07/17 09:24:57;;;;;;;;;;;;;;;44.44;12.24;101618.69;4439999;32;20469;-68
2022/07/17 09:32:39;;;;;;;;;;;;;;;44.93;12.10;101610.94;3958600;32;15726533;-69
2022/07/17 09:35:06;;;;;;;;;;;;;;;44.93;12.10;101610.94;4441901;32;20001;-69
2022/07/17 09:37:32;;;;;;;;;;;;;;;44.32;12.04;101609.91;4440572;32;20003;-69
2022/07/17 09:39:58;;;;;;;;;;;;;;;44.06;12.35;101613.59;4440788;32;20361;-69
2022/07/17 09:42:30;;;;;;;;;;;;;;;44.50;12.30;101613.06;4440620;32;20652;-69
2022/07/17 09:47:32;;;;;;;;;;;;;;;45.81;11.67;101608.75;3958914;31;15719686;-68
2022/07/17 09:49:59;;;;;;;;;;;;;;;45.81;11.67;101608.75;4430354;32;20616;-68
2022/07/17 09:52:26;;;;;;;;;;;;;;;45.43;11.51;101619.53;4430728;32;20012;-68
2022/07/17 09:54:53;;;;;;;;;;;;;;;44.45;11.90;101593.53;4431612;32;20340;-68
2022/07/17 09:57:19;;;;;;;;;;;;;;;44.62;11.90;101592.97;4432029;32;20327;-68
2022/07/17 09:59:45;;;;;;;;;;;;;;;44.78;11.74;101590.81;4428760;32;20352;-69
2022/07/17 10:02:11;;;;;;;;;;;;;;;44.82;11.62;101582.16;4429637;32;20028;-68
2022/07/17 10:04:36;;;;;;;;;;;;;;;44.91;11.50;101583.31;4417474;32;20358;-67
2022/07/17 10:07:02;;;;;;;;;;;;;;;45.51;11.39;101584.22;4418732;32;20323;-68
2022/07/17 10:09:28;;;;;;;;;;;;;;;45.14;11.56;101589.00;4430475;32;19954;-68
2022/07/17 10:11:54;;;;;;;;;;;;;;;45.65;11.46;101587.13;4429622;32;20103;-68
2022/07/17 10:14:20;;;;;;;;;;;;;;;45.13;11.85;101584.50;4429625;32;20031;-68
2022/07/17 10:16:45;;;;;;;;;;;;;;;44.07;12.48;101592.16;4432152;32;19993;-68
2022/07/17 10:19:19;;;;;;;;;;;;;;;44.88;11.87;101585.44;4430165;32;19945;-68
2022/07/17 10:22:04;;;;;;;;;;;;;;;44.07;12.01;101571.41;4429059;32;20605;-68
2022/07/17 10:24:29;;;;;;;;;;;;;;;44.04;12.29;101572.72;4430358;32;20001;-68
2022/07/17 10:26:55;;;;;;;;;;;;;;;44.51;12.33;101570.09;4430783;32;19980;-68
2022/07/17 10:32:08;;;;;;;;;;;;;;;45.84;11.59;101568.72;3974321;31;15716351;-69
2022/07/17 10:37:19;;;;;;;;;;;;;;;46.13;11.78;101569.41;3951735;32;15725145;-69
2022/07/17 10:40:04;;;;;;;;;;;;;;;46.13;11.78;101569.41;4422631;32;20016;-69
2022/07/17 10:42:38;;;;;;;;;;;;;;;44.57;12.25;101574.12;4432051;32;20175;-69
2022/07/17 10:50:21;;;;;;;;;;;;;;;44.74;12.45;101575.78;3965201;31;15716936;-68
2022/07/17 10:52:56;;;;;;;;;;;;;;;44.74;12.45;101575.78;4440744;32;19986;-68
2022/07/17 10:55:22;;;;;;;;;;;;;;;44.80;12.34;101573.91;4439714;32;21017;-68
2022/07/17 10:57:48;;;;;;;;;;;;;;;44.83;12.46;101580.72;4438619;32;20000;-68
2022/07/17 11:00:15;;;;;;;;;;;;;;;44.92;12.41;101579.69;4440834;32;19964;-68
2022/07/17 11:02:41;;;;;;;;;;;;;;;45.42;12.29;101590.44;4440534;32;19953;-68
2022/07/17 11:05:08;;;;;;;;;;;;;;;44.90;12.83;101588.50;4442986;32;19949;-68
2022/07/17 11:07:33;;;;;;;;;;;;;;;45.17;12.80;101578.72;4440893;32;20001;-68
2022/07/17 11:10:00;;;;;;;;;;;;;;;45.28;12.75;101584.53;4438677;32;20021;-68
2022/07/17 11:12:33;;;;;;;;;;;;;;;45.48;12.55;101591.50;4442533;32;19993;-69
2022/07/17 11:15:00;;;;;;;;;;;;;;;45.45;12.62;101586.16;4440688;32;19965;-69
2022/07/17 11:17:25;;;;;;;;;;;;;;;45.29;12.73;101585.28;4440198;32;19987;-68
2022/07/17 11:19:51;;;;;;;;;;;;;;;44.92;13.10;101575.94;4441810;32;20333;-69
2022/07/17 11:22:17;;;;;;;;;;;;;;;44.38;13.71;101580.53;4440607;32;19960;-68
2022/07/17 11:24:44;;;;;;;;;;;;;;;43.84;13.95;101582.66;4440878;32;20040;-68
2022/07/17 11:27:10;;;;;;;;;;;;;;;44.44;13.65;101568.22;4439459;32;20037;-68
2022/07/17 11:29:36;;;;;;;;;;;;;;;44.22;13.61;101564.03;4439504;32;20302;-68
2022/07/17 11:32:02;;;;;;;;;;;;;;;43.98;13.79;101556.78;4441992;32;20004;-68
2022/07/17 11:34:27;;;;;;;;;;;;;;;43.12;14.63;101557.72;4443236;32;20413;-68
2022/07/17 11:36:59;;;;;;;;;;;;;;;43.57;14.29;101561.84;4441943;32;20392;-68
2022/07/17 11:39:24;;;;;;;;;;;;;;;43.70;14.24;101567.81;4439053;32;20000;-69
2022/07/17 11:41:52;;;;;;;;;;;;;;;44.03;13.96;101570.41;4438565;32;19979;-68
2022/07/17 11:44:18;;;;;;;;;;;;;;;44.16;13.85;101576.34;4439796;32;21714;-68
2022/07/17 11:46:45;;;;;;;;;;;;;;;44.54;13.59;101572.47;4441864;32;19965;-68
2022/07/17 11:49:11;;;;;;;;;;;;;;;44.54;13.16;101562.81;4441499;32;20029;-69
2022/07/17 11:54:15;;;;;;;;;;;;;;;46.00;12.31;101557.56;3952627;32;15722667;-69
2022/07/17 11:56:41;;;;;;;;;;;;;;;46.00;12.31;101557.56;4430792;32;19961;-69
2022/07/17 11:59:07;;;;;;;;;;;;;;;45.88;12.26;101559.97;4431186;32;20001;-69
2022/07/17 12:01:41;;;;;;;;;;;;;;;45.76;12.63;101542.31;4432542;32;20495;-69
2022/07/17 12:04:09;;;;;;;;;;;;;;;45.88;12.47;101542.91;4433437;32;20042;-69
2022/07/17 12:06:35;;;;;;;;;;;;;;;46.13;12.37;101526.97;4431335;32;20474;-69
2022/07/17 12:09:01;;;;;;;;;;;;;;;46.55;12.05;101528.87;4433837;32;19997;-69
2022/07/17 12:11:26;;;;;;;;;;;;;;;47.65;11.38;101517.87;4433914;32;20352;-69
2022/07/17 12:13:52;;;;;;;;;;;;;;;47.92;11.11;101518.22;4430872;32;19993;-69
2022/07/17 12:16:26;;;;;;;;;;;;;;;47.56;11.08;101527.97;4430678;32;20045;-69
2022/07/17 12:18:56;;;;;;;;;;;;;;;47.84;10.85;101520.09;4431447;32;19957;-69
2022/07/17 12:21:22;;;;;;;;;;;;;;;48.17;10.39;101514.69;4431652;32;19964;-69
2022/07/17 12:23:56;;;;;;;;;;;;;;;48.97;9.94;101519.03;4433719;32;19985;-69
2022/07/17 12:26:22;;;;;;;;;;;;;;;49.37;9.63;101517.38;4432849;32;20559;-69
2022/07/17 12:28:47;;;;;;;;;;;;;;;48.41;10.01;101517.81;4431337;32;21301;-69
2022/07/17 12:31:14;;;;;;;;;;;;;;;48.48;9.65;101516.56;4429342;32;20445;-69
2022/07/17 12:33:39;;;;;;;;;;;;;;;47.29;10.39;101514.19;4435081;32;20041;-69
2022/07/17 12:36:05;;;;;;;;;;;;;;;47.21;10.54;101504.16;4430864;32;20081;-69
2022/07/17 12:38:31;;;;;;;;;;;;;;;45.89;11.17;101507.97;4431754;32;19991;-69
2022/07/17 12:40:56;;;;;;;;;;;;;;;46.38;10.86;101496.84;4432045;32;20005;-69
2022/07/17 12:43:23;;;;;;;;;;;;;;;46.56;10.71;101494.69;4431285;32;19995;-69
2022/07/17 12:45:49;;;;;;;;;;;;;;;46.89;10.60;101494.63;4429587;32;19971;-69
2022/07/17 12:48:14;;;;;;;;;;;;;;;47.04;10.60;101481.06;4430901;32;20295;-69
2022/07/17 12:50:40;;;;;;;;;;;;;;;46.55;10.47;101501.31;4429720;32;20025;-69
2022/07/17 12:53:06;;;;;;;;;;;;;;;47.04;9.93;101487.78;4433010;32;19993;-69